sensor_id;sensor_type;location;lat;lon;timestamp;pressure;altitude;pressure_sealevel;temperature;humidity
16544;BME280;8384;47.996;7.786;2022-12-29T00:02:10;98467.00;;;12.40;50.30
16544;BME280;8384;47.996;7.786;2022-12-29T00:04:36;98442.91;;;12.37;49.03
16544;BME280;8384;47.996;7.786;2022-12-29T00:07:01;98462.84;;;12.53;49.39
16544;BME280;8384;47.996;7.786;2022-12-29T00:09:29;98431.94;;;12.37;49.19
16544;BME280;8384;47.996;7.786;2022-12-29T00:11:55;98422.09;;;12.36;49.47
16544;BME280;8384;47.996;7.786;2022-12-29T00:14:20;98383.28;;;12.13;49.67
16544;BME280;8384;47.996;7.786;2022-12-29T00:17:04;98425.38;;;12.33;49.10
16544;BME280;8384;47.996;7.786;2022-12-29T00:19:29;98411.16;;;12.30;49.38
16544;BME280;8384;47.996;7.786;2022-12-29T00:22:14;98433.00;;;12.46;49.40
16544;BME280;8384;47.996;7.786;2022-12-29T00:24:58;98440.13;;;12.52;48.78
16544;BME280;8384;47.996;7.786;2022-12-29T00:27:47;98437.63;;;12.56;48.86
16544;BME280;8384;47.996;7.786;2022-12-29T00:30:30;98446.97;;;12.50;48.77
16544;BME280;8384;47.996;7.786;2022-12-29T00:33:19;98455.69;;;12.62;48.18
16544;BME280;8384;47.996;7.786;2022-12-29T00:36:23;98454.03;;;12.61;48.29
16544;BME280;8384;47.996;7.786;2022-12-29T00:38:58;98452.19;;;12.51;47.91
16544;BME280;8384;47.996;7.786;2022-12-29T00:41:42;98460.63;;;12.65;47.65
16544;BME280;8384;47.996;7.786;2022-12-29T00:44:26;98464.19;;;12.60;48.13
16544;BME280;8384;47.996;7.786;2022-12-29T00:46:51;98442.38;;;12.35;48.34
16544;BME280;8384;47.996;7.786;2022-12-29T00:49:17;98466.72;;;12.47;48.49
16544;BME280;8384;47.996;7.786;2022-12-29T00:54:24;98455.47;;;12.48;48.36
16544;BME280;8384;47.996;7.786;2022-12-29T00:56:51;98438.28;;;12.27;48.52
16544;BME280;8384;47.996;7.786;2022-12-29T00:59:17;98466.19;;;12.44;47.97
16544;BME280;8384;47.996;7.786;2022-12-29T01:01:43;98464.25;;;12.45;48.19
16544;BME280;8384;47.996;7.786;2022-12-29T01:04:09;98466.22;;;12.39;48.28
16544;BME280;8384;47.996;7.786;2022-12-29T01:06:36;98454.19;;;12.30;48.52
16544;BME280;8384;47.996;7.786;2022-12-29T01:09:02;98454.78;;;12.17;48.87
16544;BME280;8384;47.996;7.786;2022-12-29T01:11:46;98466.78;;;12.26;49.13
16544;BME280;8384;47.996;7.786;2022-12-29T01:14:12;98472.56;;;12.19;49.43
16544;BME280;8384;47.996;7.786;2022-12-29T01:16:37;98486.28;;;12.19;49.18
16544;BME280;8384;47.996;7.786;2022-12-29T01:19:03;98489.31;;;12.18;49.50
16544;BME280;8384;47.996;7.786;2022-12-29T01:21:29;98494.78;;;12.18;49.38
16544;BME280;8384;47.996;7.786;2022-12-29T01:23:54;98481.09;;;11.97;49.98
16544;BME280;8384;47.996;7.786;2022-12-29T01:26:20;98477.53;;;11.96;49.96
16544;BME280;8384;47.996;7.786;2022-12-29T01:28:45;98499.16;;;11.98;50.20
16544;BME280;8384;47.996;7.786;2022-12-29T01:31:13;98496.97;;;11.95;50.39
16544;BME280;8384;47.996;7.786;2022-12-29T01:33:38;98493.44;;;11.89;50.65
16544;BME280;8384;47.996;7.786;2022-12-29T01:36:07;98496.41;;;11.93;50.72
16544;BME280;8384;47.996;7.786;2022-12-29T01:38:34;98478.09;;;11.83;50.72
16544;BME280;8384;47.996;7.786;2022-12-29T01:40:59;98490.69;;;11.84;51.02
16544;BME280;8384;47.996;7.786;2022-12-29T01:46:38;98500.84;;;11.73;51.77
16544;BME280;8384;47.996;7.786;2022-12-29T01:49:05;98499.47;;;11.65;51.98
16544;BME280;8384;47.996;7.786;2022-12-29T01:51:52;98498.38;;;11.40;53.16
16544;BME280;8384;47.996;7.786;2022-12-29T01:54:33;98484.16;;;11.59;51.99
16544;BME280;8384;47.996;7.786;2022-12-29T01:57:04;98496.47;;;11.57;53.25
16544;BME280;8384;47.996;7.786;2022-12-29T01:59:33;98489.63;;;11.54;52.93
16544;BME280;8384;47.996;7.786;2022-12-29T02:01:59;98505.22;;;11.53;53.16
16544;BME280;8384;47.996;7.786;2022-12-29T02:04:26;98498.66;;;11.49;53.39
16544;BME280;8384;47.996;7.786;2022-12-29T02:06:54;98494.56;;;11.52;53.53
16544;BME280;8384;47.996;7.786;2022-12-29T02:09:22;98493.44;;;11.37;53.24
16544;BME280;8384;47.996;7.786;2022-12-29T02:11:48;98473.75;;;11.35;53.49
16544;BME280;8384;47.996;7.786;2022-12-29T02:14:14;98461.19;;;11.24;52.93
16544;BME280;8384;47.996;7.786;2022-12-29T02:30:37;98478.41;;;11.35;53.57
16544;BME280;8384;47.996;7.786;2022-12-29T02:33:10;98483.88;;;11.35;53.66
16544;BME280;8384;47.996;7.786;2022-12-29T02:38:20;98470.47;;;11.33;53.65
16544;BME280;8384;47.996;7.786;2022-12-29T02:40:59;98459.50;;;11.07;54.29
16544;BME280;8384;47.996;7.786;2022-12-29T02:43:38;98458.97;;;11.16;54.48
16544;BME280;8384;47.996;7.786;2022-12-29T02:46:11;98450.50;;;11.22;54.23
16544;BME280;8384;47.996;7.786;2022-12-29T02:48:47;98460.88;;;11.25;54.68
16544;BME280;8384;47.996;7.786;2022-12-29T02:51:27;98467.47;;;11.35;54.90
16544;BME280;8384;47.996;7.786;2022-12-29T02:53:55;98445.81;;;11.28;54.81
16544;BME280;8384;47.996;7.786;2022-12-29T02:56:40;98452.13;;;11.23;55.30
16544;BME280;8384;47.996;7.786;2022-12-29T02:59:06;98457.59;;;11.29;55.13
16544;BME280;8384;47.996;7.786;2022-12-29T03:16:27;98428.34;;;11.19;56.64
16544;BME280;8384;47.996;7.786;2022-12-29T03:19:11;98434.06;;;11.22;56.95
16544;BME280;8384;47.996;7.786;2022-12-29T03:21:43;98430.22;;;11.13;56.76
16544;BME280;8384;47.996;7.786;2022-12-29T03:24:32;98425.59;;;11.19;56.82
16544;BME280;8384;47.996;7.786;2022-12-29T03:27:01;98417.66;;;11.22;57.23
16544;BME280;8384;47.996;7.786;2022-12-29T03:29:29;98422.28;;;11.06;57.59
16544;BME280;8384;47.996;7.786;2022-12-29T03:31:56;98396.84;;;10.90;57.48
16544;BME280;8384;47.996;7.786;2022-12-29T03:34:24;98420.41;;;11.07;57.30
16544;BME280;8384;47.996;7.786;2022-12-29T03:36:57;98385.94;;;10.85;57.78
16544;BME280;8384;47.996;7.786;2022-12-29T03:39:24;98372.81;;;10.82;57.59
16544;BME280;8384;47.996;7.786;2022-12-29T03:41:57;98397.41;;;10.98;57.85
16544;BME280;8384;47.996;7.786;2022-12-29T03:44:37;98405.34;;;10.94;58.41
16544;BME280;8384;47.996;7.786;2022-12-29T03:47:04;98378.56;;;10.96;58.43
16544;BME280;8384;47.996;7.786;2022-12-29T03:49:30;98406.97;;;11.00;58.45
16544;BME280;8384;47.996;7.786;2022-12-29T03:51:55;98402.88;;;11.03;58.47
16544;BME280;8384;47.996;7.786;2022-12-29T03:54:21;98410.25;;;11.02;58.36
16544;BME280;8384;47.996;7.786;2022-12-29T03:56:46;98408.06;;;11.04;58.08
16544;BME280;8384;47.996;7.786;2022-12-29T03:59:11;98418.75;;;11.11;58.22
16544;BME280;8384;47.996;7.786;2022-12-29T04:01:37;98433.25;;;11.22;57.96
16544;BME280;8384;47.996;7.786;2022-12-29T04:04:03;98440.38;;;11.18;58.57
16544;BME280;8384;47.996;7.786;2022-12-29T04:06:28;98431.06;;;11.19;57.88
16544;BME280;8384;47.996;7.786;2022-12-29T04:08:53;98431.34;;;11.22;58.65
16544;BME280;8384;47.996;7.786;2022-12-29T04:11:20;98400.13;;;11.13;58.32
16544;BME280;8384;47.996;7.786;2022-12-29T04:13:45;98416.56;;;11.29;58.25
16544;BME280;8384;47.996;7.786;2022-12-29T04:16:11;98429.97;;;11.30;58.06
16544;BME280;8384;47.996;7.786;2022-12-29T04:18:36;98426.13;;;11.31;57.87
16544;BME280;8384;47.996;7.786;2022-12-29T04:21:01;98393.59;;;11.09;58.40
16544;BME280;8384;47.996;7.786;2022-12-29T04:23:29;98411.91;;;11.08;58.42
16544;BME280;8384;47.996;7.786;2022-12-29T04:25:55;98435.16;;;11.21;59.08
16544;BME280;8384;47.996;7.786;2022-12-29T04:28:21;98417.91;;;11.00;59.38
16544;BME280;8384;47.996;7.786;2022-12-29T04:30:46;98417.66;;;11.02;59.89
16544;BME280;8384;47.996;7.786;2022-12-29T04:33:11;98420.38;;;10.81;60.11
16544;BME280;8384;47.996;7.786;2022-12-29T04:35:37;98419.03;;;10.94;60.29
16544;BME280;8384;47.996;7.786;2022-12-29T04:38:03;98409.44;;;10.91;59.97
16544;BME280;8384;47.996;7.786;2022-12-29T04:40:28;98405.88;;;10.86;60.13
16544;BME280;8384;47.996;7.786;2022-12-29T04:42:53;98405.59;;;10.87;60.00
16544;BME280;8384;47.996;7.786;2022-12-29T04:45:19;98384.81;;;10.81;59.99
16544;BME280;8384;47.996;7.786;2022-12-29T04:47:44;98393.00;;;10.86;60.14
16544;BME280;8384;47.996;7.786;2022-12-29T04:50:10;98376.88;;;10.74;59.89
16544;BME280;8384;47.996;7.786;2022-12-29T04:52:35;98375.47;;;10.61;60.13
16544;BME280;8384;47.996;7.786;2022-12-29T04:55:01;98388.09;;;10.78;59.66
16544;BME280;8384;47.996;7.786;2022-12-29T04:57:26;98394.41;;;10.89;59.20
16544;BME280;8384;47.996;7.786;2022-12-29T04:59:51;98387.31;;;10.98;58.77
16544;BME280;8384;47.996;7.786;2022-12-29T05:02:17;98392.50;;;11.05;58.23
16544;BME280;8384;47.996;7.786;2022-12-29T05:04:42;98389.47;;;11.12;57.88
16544;BME280;8384;47.996;7.786;2022-12-29T05:07:08;98390.31;;;11.12;58.10
16544;BME280;8384;47.996;7.786;2022-12-29T05:09:33;98397.13;;;11.09;58.11
16544;BME280;8384;47.996;7.786;2022-12-29T05:11:58;98391.13;;;11.18;57.72
16544;BME280;8384;47.996;7.786;2022-12-29T05:14:24;98393.03;;;11.17;58.16
16544;BME280;8384;47.996;7.786;2022-12-29T05:16:49;98385.66;;;11.23;57.72
16544;BME280;8384;47.996;7.786;2022-12-29T05:19:14;98398.50;;;11.33;57.11
16544;BME280;8384;47.996;7.786;2022-12-29T05:21:40;98403.69;;;11.39;56.86
16544;BME280;8384;47.996;7.786;2022-12-29T05:24:05;98382.91;;;11.38;57.17
16544;BME280;8384;47.996;7.786;2022-12-29T05:26:30;98363.75;;;11.38;56.54
16544;BME280;8384;47.996;7.786;2022-12-29T05:28:56;98356.06;;;11.46;56.47
16544;BME280;8384;47.996;7.786;2022-12-29T05:31:21;98377.63;;;11.68;55.59
16544;BME280;8384;47.996;7.786;2022-12-29T05:33:46;98382.25;;;11.83;54.93
16544;BME280;8384;47.996;7.786;2022-12-29T05:36:12;98370.25;;;11.74;55.67
16544;BME280;8384;47.996;7.786;2022-12-29T05:38:37;98370.19;;;11.84;55.08
16544;BME280;8384;47.996;7.786;2022-12-29T05:41:03;98330.84;;;11.54;54.83
16544;BME280;8384;47.996;7.786;2022-12-29T05:43:28;98336.50;;;11.89;53.74
16544;BME280;8384;47.996;7.786;2022-12-29T05:45:53;98370.44;;;12.03;53.72
16544;BME280;8384;47.996;7.786;2022-12-29T05:48:19;98363.59;;;11.90;54.24
16544;BME280;8384;47.996;7.786;2022-12-29T05:50:49;98352.41;;;11.81;53.46
16544;BME280;8384;47.996;7.786;2022-12-29T05:53:14;98352.97;;;11.83;54.40
16544;BME280;8384;47.996;7.786;2022-12-29T05:55:40;98355.41;;;11.85;54.56
16544;BME280;8384;47.996;7.786;2022-12-29T05:58:05;98378.13;;;12.01;54.16
16544;BME280;8384;47.996;7.786;2022-12-29T06:00:30;98381.13;;;11.94;54.67
16544;BME280;8384;47.996;7.786;2022-12-29T06:02:55;98375.41;;;11.85;54.83
16544;BME280;8384;47.996;7.786;2022-12-29T06:05:21;98372.38;;;11.87;55.12
16544;BME280;8384;47.996;7.786;2022-12-29T06:07:46;98378.16;;;11.85;55.33
16544;BME280;8384;47.996;7.786;2022-12-29T06:10:11;98362.28;;;11.72;55.36
16544;BME280;8384;47.996;7.786;2022-12-29T06:12:36;98363.41;;;11.66;55.67
16544;BME280;8384;47.996;7.786;2022-12-29T06:15:02;98360.72;;;11.50;56.03
16544;BME280;8384;47.996;7.786;2022-12-29T06:17:28;98357.97;;;11.50;56.15
16544;BME280;8384;47.996;7.786;2022-12-29T06:19:53;98361.25;;;11.52;56.03
16544;BME280;8384;47.996;7.786;2022-12-29T06:22:18;98357.69;;;11.57;55.80
16544;BME280;8384;47.996;7.786;2022-12-29T06:24:43;98362.63;;;11.50;55.41
16544;BME280;8384;47.996;7.786;2022-12-29T06:27:09;98352.19;;;11.57;54.29
16544;BME280;8384;47.996;7.786;2022-12-29T06:29:34;98373.00;;;11.63;54.67
16544;BME280;8384;47.996;7.786;2022-12-29T06:32:02;98357.66;;;11.73;53.08
16544;BME280;8384;47.996;7.786;2022-12-29T06:34:27;98356.81;;;11.77;52.98
16544;BME280;8384;47.996;7.786;2022-12-29T06:36:52;98329.97;;;11.74;52.64
16544;BME280;8384;47.996;7.786;2022-12-29T06:39:18;98374.31;;;11.92;51.97
16544;BME280;8384;47.996;7.786;2022-12-29T06:41:43;98366.00;;;12.18;51.28
16544;BME280;8384;47.996;7.786;2022-12-29T06:44:08;98357.81;;;11.97;52.43
16544;BME280;8384;47.996;7.786;2022-12-29T06:46:34;98341.47;;;11.81;52.03
16544;BME280;8384;47.996;7.786;2022-12-29T06:48:59;98360.66;;;11.66;53.87
16544;BME280;8384;47.996;7.786;2022-12-29T06:51:24;98337.47;;;11.48;53.96
16544;BME280;8384;47.996;7.786;2022-12-29T06:53:50;98361.50;;;11.72;53.63
16544;BME280;8384;47.996;7.786;2022-12-29T06:56:15;98354.06;;;11.77;52.74
16544;BME280;8384;47.996;7.786;2022-12-29T06:58:40;98363.38;;;11.81;52.84
16544;BME280;8384;47.996;7.786;2022-12-29T07:01:05;98350.75;;;11.91;52.34
16544;BME280;8384;47.996;7.786;2022-12-29T07:03:31;98345.84;;;11.82;52.42
16544;BME280;8384;47.996;7.786;2022-12-29T07:05:56;98356.50;;;11.89;52.47
16544;BME280;8384;47.996;7.786;2022-12-29T07:08:23;98363.84;;;11.94;52.74
16544;BME280;8384;47.996;7.786;2022-12-29T07:10:48;98369.91;;;12.01;52.52
16544;BME280;8384;47.996;7.786;2022-12-29T07:13:13;98358.13;;;12.00;52.33
16544;BME280;8384;47.996;7.786;2022-12-29T07:15:39;98372.34;;;11.97;52.70
16544;BME280;8384;47.996;7.786;2022-12-29T07:18:04;98331.03;;;11.89;52.08
16544;BME280;8384;47.996;7.786;2022-12-29T07:20:30;98358.66;;;11.97;52.42
16544;BME280;8384;47.996;7.786;2022-12-29T07:22:56;98364.41;;;11.96;52.32
16544;BME280;8384;47.996;7.786;2022-12-29T07:25:21;98395.38;;;12.02;52.49
16544;BME280;8384;47.996;7.786;2022-12-29T07:27:47;98380.88;;;11.91;52.85
16544;BME280;8384;47.996;7.786;2022-12-29T07:30:13;98392.38;;;11.88;53.19
16544;BME280;8384;47.996;7.786;2022-12-29T07:32:39;98401.69;;;11.87;53.69
16544;BME280;8384;47.996;7.786;2022-12-29T07:35:05;98388.28;;;11.80;54.10
16544;BME280;8384;47.996;7.786;2022-12-29T07:37:30;98395.38;;;11.86;53.15
16544;BME280;8384;47.996;7.786;2022-12-29T07:39:55;98378.41;;;11.89;52.46
16544;BME280;8384;47.996;7.786;2022-12-29T07:42:20;98407.91;;;12.18;52.08
16544;BME280;8384;47.996;7.786;2022-12-29T07:44:46;98383.56;;;11.96;52.63
16544;BME280;8384;47.996;7.786;2022-12-29T07:47:11;98382.50;;;12.02;53.01
16544;BME280;8384;47.996;7.786;2022-12-29T07:49:36;98387.69;;;11.98;53.06
16544;BME280;8384;47.996;7.786;2022-12-29T07:52:01;98406.59;;;12.05;53.35
16544;BME280;8384;47.996;7.786;2022-12-29T07:54:27;98412.63;;;12.07;52.91
16544;BME280;8384;47.996;7.786;2022-12-29T07:56:52;98414.81;;;12.05;52.79
16544;BME280;8384;47.996;7.786;2022-12-29T07:59:17;98436.13;;;12.19;53.11
16544;BME280;8384;47.996;7.786;2022-12-29T08:01:43;98414.25;;;11.98;53.81
16544;BME280;8384;47.996;7.786;2022-12-29T08:04:08;98389.91;;;11.81;54.47
16544;BME280;8384;47.996;7.786;2022-12-29T08:06:33;98401.97;;;11.80;53.97
16544;BME280;8384;47.996;7.786;2022-12-29T08:08:59;98420.53;;;12.09;53.79
16544;BME280;8384;47.996;7.786;2022-12-29T08:11:25;98413.16;;;12.04;53.92
16544;BME280;8384;47.996;7.786;2022-12-29T08:13:51;98407.44;;;12.00;53.76
16544;BME280;8384;47.996;7.786;2022-12-29T08:16:16;98434.28;;;12.04;54.30
16544;BME280;8384;47.996;7.786;2022-12-29T08:18:41;98429.03;;;12.12;54.08
16544;BME280;8384;47.996;7.786;2022-12-29T08:21:07;98410.47;;;11.89;54.57
16544;BME280;8384;47.996;7.786;2022-12-29T08:23:32;98416.47;;;12.01;53.93
16544;BME280;8384;47.996;7.786;2022-12-29T08:26:03;98436.94;;;12.24;53.23
16544;BME280;8384;47.996;7.786;2022-12-29T08:28:29;98452.28;;;12.30;53.18
16544;BME280;8384;47.996;7.786;2022-12-29T08:30:57;98453.31;;;12.35;52.99
16544;BME280;8384;47.996;7.786;2022-12-29T08:33:23;98454.19;;;12.20;53.41
16544;BME280;8384;47.996;7.786;2022-12-29T08:35:48;98439.94;;;12.28;53.63
16544;BME280;8384;47.996;7.786;2022-12-29T08:38:14;98445.66;;;12.37;53.64
16544;BME280;8384;47.996;7.786;2022-12-29T08:40:40;98443.44;;;12.39;53.56
16544;BME280;8384;47.996;7.786;2022-12-29T08:43:05;98458.44;;;12.57;53.26
16544;BME280;8384;47.996;7.786;2022-12-29T08:45:31;98456.22;;;12.69;53.62
16544;BME280;8384;47.996;7.786;2022-12-29T08:47:57;98397.75;;;12.19;53.72
16544;BME280;8384;47.996;7.786;2022-12-29T08:50:23;98453.47;;;12.69;53.70
16544;BME280;8384;47.996;7.786;2022-12-29T08:52:48;98461.19;;;12.57;53.83
16544;BME280;8384;47.996;7.786;2022-12-29T08:55:14;98468.28;;;12.63;53.87
16544;BME280;8384;47.996;7.786;2022-12-29T08:57:39;98484.75;;;12.58;54.30
16544;BME280;8384;47.996;7.786;2022-12-29T09:00:05;98473.22;;;12.66;54.12
16544;BME280;8384;47.996;7.786;2022-12-29T09:02:30;98473.50;;;12.59;54.55
16544;BME280;8384;47.996;7.786;2022-12-29T09:04:56;98479.25;;;12.63;54.63
16544;BME280;8384;47.996;7.786;2022-12-29T09:07:23;98485.56;;;12.58;54.44
16544;BME280;8384;47.996;7.786;2022-12-29T09:09:48;98494.31;;;12.66;54.58
16544;BME280;8384;47.996;7.786;2022-12-29T09:12:14;98500.09;;;12.64;54.77
16544;BME280;8384;47.996;7.786;2022-12-29T09:14:39;98504.72;;;12.69;54.60
16544;BME280;8384;47.996;7.786;2022-12-29T09:17:05;98507.50;;;12.64;54.52
16544;BME280;8384;47.996;7.786;2022-12-29T09:19:48;98475.78;;;12.47;54.39
16544;BME280;8384;47.996;7.786;2022-12-29T09:22:14;98495.97;;;12.62;54.80
16544;BME280;8384;47.996;7.786;2022-12-29T09:24:39;98494.31;;;12.66;54.95
16544;BME280;8384;47.996;7.786;2022-12-29T09:27:04;98491.03;;;12.69;55.01
16544;BME280;8384;47.996;7.786;2022-12-29T09:29:30;98504.16;;;12.77;54.84
16544;BME280;8384;47.996;7.786;2022-12-29T09:31:55;98514.00;;;12.83;55.08
16544;BME280;8384;47.996;7.786;2022-12-29T09:34:20;98484.72;;;12.68;54.55
16544;BME280;8384;47.996;7.786;2022-12-29T09:36:46;98542.50;;;12.87;54.42
16544;BME280;8384;47.996;7.786;2022-12-29T09:39:12;98535.63;;;12.95;54.92
16544;BME280;8384;47.996;7.786;2022-12-29T09:44:27;98505.59;;;12.59;56.71
16544;BME280;8384;47.996;7.786;2022-12-29T09:46:56;98503.16;;;12.57;58.25
16544;BME280;8384;47.996;7.786;2022-12-29T09:49:40;98534.13;;;12.53;59.67
16544;BME280;8384;47.996;7.786;2022-12-29T09:52:31;98489.50;;;12.32;60.91
16544;BME280;8384;47.996;7.786;2022-12-29T09:55:24;98523.47;;;12.46;61.83
16544;BME280;8384;47.996;7.786;2022-12-29T09:57:56;98499.44;;;12.17;62.34
16544;BME280;8384;47.996;7.786;2022-12-29T10:00:37;98519.66;;;12.32;62.58
16544;BME280;8384;47.996;7.786;2022-12-29T10:03:14;98539.69;;;12.22;62.65
16544;BME280;8384;47.996;7.786;2022-12-29T10:16:52;98521.91;;;12.19;63.14
16544;BME280;8384;47.996;7.786;2022-12-29T10:19:39;98512.88;;;12.13;63.86
16544;BME280;8384;47.996;7.786;2022-12-29T10:22:14;98513.97;;;12.02;64.06
16544;BME280;8384;47.996;7.786;2022-12-29T10:24:47;98495.34;;;11.99;63.83
16544;BME280;8384;47.996;7.786;2022-12-29T10:27:15;98504.13;;;12.06;64.14
16544;BME280;8384;47.996;7.786;2022-12-29T10:29:49;98491.78;;;11.98;64.11
16544;BME280;8384;47.996;7.786;2022-12-29T10:34:55;98490.13;;;11.92;64.65
16544;BME280;8384;47.996;7.786;2022-12-29T10:37:34;98506.06;;;12.00;64.17
16544;BME280;8384;47.996;7.786;2022-12-29T10:40:14;98533.44;;;12.00;65.15
16544;BME280;8384;47.996;7.786;2022-12-29T10:42:45;98515.06;;;12.06;65.69
16544;BME280;8384;47.996;7.786;2022-12-29T10:45:13;98520.84;;;11.99;66.35
16544;BME280;8384;47.996;7.786;2022-12-29T10:47:51;98504.13;;;11.91;67.47
16544;BME280;8384;47.996;7.786;2022-12-29T10:50:17;98492.06;;;11.92;68.20
16544;BME280;8384;47.996;7.786;2022-12-29T10:52:43;98484.13;;;11.80;68.65
16544;BME280;8384;47.996;7.786;2022-12-29T10:55:15;98471.00;;;11.77;69.01
16544;BME280;8384;47.996;7.786;2022-12-29T10:57:44;98481.13;;;11.81;69.18
16544;BME280;8384;47.996;7.786;2022-12-29T11:00:15;98489.06;;;11.83;68.87
16544;BME280;8384;47.996;7.786;2022-12-29T11:05:48;98477.53;;;11.96;67.91
16544;BME280;8384;47.996;7.786;2022-12-29T11:08:17;98465.22;;;11.89;67.96
16544;BME280;8384;47.996;7.786;2022-12-29T11:10:44;98480.31;;;12.02;68.19
16544;BME280;8384;47.996;7.786;2022-12-29T11:13:14;98496.75;;;12.02;67.93
16544;BME280;8384;47.996;7.786;2022-12-29T11:15:42;98490.13;;;11.97;71.25
16544;BME280;8384;47.996;7.786;2022-12-29T11:20:43;98477.59;;;11.45;74.63
16544;BME280;8384;47.996;7.786;2022-12-29T11:26:13;98478.13;;;11.57;73.91
16544;BME280;8384;47.996;7.786;2022-12-29T11:28:42;98469.91;;;11.57;72.14
16544;BME280;8384;47.996;7.786;2022-12-29T11:31:08;98433.78;;;11.65;70.24
16544;BME280;8384;47.996;7.786;2022-12-29T11:33:36;98446.88;;;11.94;69.71
16544;BME280;8384;47.996;7.786;2022-12-29T11:36:05;98472.25;;;12.31;67.75
16544;BME280;8384;47.996;7.786;2022-12-29T11:38:37;98464.34;;;12.29;67.28
16544;BME280;8384;47.996;7.786;2022-12-29T11:41:06;98452.22;;;12.36;66.58
16544;BME280;8384;47.996;7.786;2022-12-29T11:43:34;98430.03;;;12.37;66.00
16544;BME280;8384;47.996;7.786;2022-12-29T11:46:03;98431.13;;;12.41;65.55
16544;BME280;8384;47.996;7.786;2022-12-29T11:48:37;98454.09;;;12.51;65.43
16544;BME280;8384;47.996;7.786;2022-12-29T11:51:04;98427.03;;;12.34;65.01
16544;BME280;8384;47.996;7.786;2022-12-29T11:53:58;98449.38;;;12.62;64.70
16544;BME280;8384;47.996;7.786;2022-12-29T11:56:39;98446.41;;;12.53;65.28
16544;BME280;8384;47.996;7.786;2022-12-29T11:59:34;98459.84;;;12.54;64.24
16544;BME280;8384;47.996;7.786;2022-12-29T12:02:28;98445.81;;;12.66;64.01
16544;BME280;8384;47.996;7.786;2022-12-29T12:05:21;98439.81;;;12.59;64.30
16544;BME280;8384;47.996;7.786;2022-12-29T12:07:55;98401.38;;;12.64;64.08
16544;BME280;8384;47.996;7.786;2022-12-29T12:10:29;98413.69;;;12.72;63.98
16544;BME280;8384;47.996;7.786;2022-12-29T12:16:09;98388.59;;;12.49;64.15
16544;BME280;8384;47.996;7.786;2022-12-29T12:21:41;98469.41;;;12.62;65.36
16544;BME280;8384;47.996;7.786;2022-12-29T12:27:11;98422.50;;;12.64;67.27
16544;BME280;8384;47.996;7.786;2022-12-29T12:29:45;98406.25;;;12.27;67.83
16544;BME280;8384;47.996;7.786;2022-12-29T12:34:59;98418.56;;;12.30;68.72
16544;BME280;8384;47.996;7.786;2022-12-29T12:37:37;98412.75;;;12.37;69.42
16544;BME280;8384;47.996;7.786;2022-12-29T12:48:13;98404.69;;;12.61;69.02
16544;BME280;8384;47.996;7.786;2022-12-29T12:53:55;98403.66;;;12.47;69.99
16544;BME280;8384;47.996;7.786;2022-12-29T12:59:04;98398.50;;;12.35;68.79
16544;BME280;8384;47.996;7.786;2022-12-29T13:01:42;98396.84;;;12.44;69.77
16544;BME280;8384;47.996;7.786;2022-12-29T13:04:25;98408.34;;;12.46;69.67
16544;BME280;8384;47.996;7.786;2022-12-29T13:07:06;98388.81;;;12.58;68.89
16544;BME280;8384;47.996;7.786;2022-12-29T13:09:54;98394.28;;;12.58;68.05
16544;BME280;8384;47.996;7.786;2022-12-29T13:21:00;98398.13;;;12.57;66.60
16544;BME280;8384;47.996;7.786;2022-12-29T13:23:38;98379.53;;;12.49;65.55
16544;BME280;8384;47.996;7.786;2022-12-29T13:26:13;98393.16;;;12.64;65.60
16544;BME280;8384;47.996;7.786;2022-12-29T13:28:47;98419.19;;;12.67;65.20
16544;BME280;8384;47.996;7.786;2022-12-29T13:31:42;98391.75;;;12.72;64.68
16544;BME280;8384;47.996;7.786;2022-12-29T13:37:00;98358.09;;;12.61;64.04
16544;BME280;8384;47.996;7.786;2022-12-29T13:39:42;98387.38;;;12.66;64.27
16544;BME280;8384;47.996;7.786;2022-12-29T13:42:09;98412.06;;;12.66;64.54
16544;BME280;8384;47.996;7.786;2022-12-29T13:44:42;98390.91;;;12.71;64.54
16544;BME280;8384;47.996;7.786;2022-12-29T13:47:28;98402.41;;;12.73;64.08
16544;BME280;8384;47.996;7.786;2022-12-29T13:49:57;98370.72;;;12.57;64.58
16544;BME280;8384;47.996;7.786;2022-12-29T13:55:32;98392.19;;;12.44;65.77
16544;BME280;8384;47.996;7.786;2022-12-29T13:58:04;98398.25;;;12.36;66.57
16544;BME280;8384;47.996;7.786;2022-12-29T14:00:46;98415.03;;;12.24;67.55
16544;BME280;8384;47.996;7.786;2022-12-29T14:08:34;98398.03;;;12.27;69.00
16544;BME280;8384;47.996;7.786;2022-12-29T14:11:07;98384.34;;;12.22;68.99
16544;BME280;8384;47.996;7.786;2022-12-29T14:13:37;98400.47;;;12.29;69.12
16544;BME280;8384;47.996;7.786;2022-12-29T14:16:04;98413.63;;;12.22;69.93
16544;BME280;8384;47.996;7.786;2022-12-29T14:18:34;98402.19;;;12.09;70.51
16544;BME280;8384;47.996;7.786;2022-12-29T14:23:45;98404.94;;;12.09;71.04
16544;BME280;8384;47.996;7.786;2022-12-29T14:28:54;98412.59;;;12.18;70.77
16544;BME280;8384;47.996;7.786;2022-12-29T14:36:40;98412.03;;;12.15;70.91
16544;BME280;8384;47.996;7.786;2022-12-29T14:39:40;98421.28;;;12.30;70.28
16544;BME280;8384;47.996;7.786;2022-12-29T14:44:32;98431.53;;;12.04;70.57
16544;BME280;8384;47.996;7.786;2022-12-29T14:47:00;98425.78;;;12.05;69.94
16544;BME280;8384;47.996;7.786;2022-12-29T14:49:40;98425.19;;;11.98;70.97
16544;BME280;8384;47.996;7.786;2022-12-29T14:52:19;98418.94;;;11.87;70.11
16544;BME280;8384;47.996;7.786;2022-12-29T14:54:57;98426.31;;;12.07;70.02
16544;BME280;8384;47.996;7.786;2022-12-29T14:57:37;98410.72;;;11.82;70.66
16544;BME280;8384;47.996;7.786;2022-12-29T15:00:08;98446.31;;;11.97;70.77
16544;BME280;8384;47.996;7.786;2022-12-29T15:02:45;98452.34;;;11.89;71.63
16544;BME280;8384;47.996;7.786;2022-12-29T15:05:43;98450.75;;;11.78;74.05
16544;BME280;8384;47.996;7.786;2022-12-29T15:08:11;98448.00;;;11.62;77.44
16544;BME280;8384;47.996;7.786;2022-12-29T15:10:42;98463.91;;;11.39;80.33
16544;BME280;8384;47.996;7.786;2022-12-29T15:13:17;98449.13;;;11.30;79.70
16544;BME280;8384;47.996;7.786;2022-12-29T15:15:43;98449.41;;;11.29;80.27
16544;BME280;8384;47.996;7.786;2022-12-29T15:18:33;98450.22;;;11.34;80.08
16544;BME280;8384;47.996;7.786;2022-12-29T15:21:04;98453.78;;;11.35;78.44
16544;BME280;8384;47.996;7.786;2022-12-29T15:23:32;98449.13;;;11.46;76.52
16544;BME280;8384;47.996;7.786;2022-12-29T15:25:59;98435.44;;;11.40;76.85